sensor_id;sensor_type;location;lat;lon;timestamp;P1;durP1;ratioP1;P2;durP2;ratioP2
23260;SDS011;11799;47.740;-3.390;2023-05-10T00:00:36;16.35;;;3.08;;
23260;SDS011;11799;47.740;-3.390;2023-05-10T00:03:02;17.58;;;3.35;;
23260;SDS011;11799;47.740;-3.390;2023-05-10T00:05:30;19.52;;;3.38;;
23260;SDS011;11799;47.740;-3.390;2023-05-10T00:07:56;17.77;;;2.80;;
23260;SDS011;11799;47.740;-3.390;2023-05-10T00:10:22;14.48;;;2.65;;
23260;SDS011;11799;47.740;-3.390;2023-05-10T00:12:47;16.58;;;3.45;;
23260;SDS011;11799;47.740;-3.390;2023-05-10T00:15:13;18.95;;;3.40;;
23260;SDS011;11799;47.740;-3.390;2023-05-10T00:17:39;16.52;;;2.92;;
23260;SDS011;11799;47.740;-3.390;2023-05-10T00:20:05;20.08;;;3.40;;
23260;SDS011;11799;47.740;-3.390;2023-05-10T00:22:31;20.40;;;3.25;;
23260;SDS011;11799;47.740;-3.390;2023-05-10T00:24:57;18.60;;;3.40;;
23260;SDS011;11799;47.740;-3.390;2023-05-10T00:27:23;10.27;;;2.88;;
23260;SDS011;11799;47.740;-3.390;2023-05-10T00:29:48;19.35;;;3.03;;
23260;SDS011;11799;47.740;-3.390;2023-05-10T00:32:14;14.75;;;2.95;;
23260;SDS011;11799;47.740;-3.390;2023-05-10T00:34:40;22.20;;;3.13;;
23260;SDS011;11799;47.740;-3.390;2023-05-10T00:37:06;17.90;;;4.03;;
23260;SDS011;11799;47.740;-3.390;2023-05-10T00:39:32;22.38;;;3.20;;
23260;SDS011;11799;47.740;-3.390;2023-05-10T00:41:57;20.83;;;3.33;;
23260;SDS011;11799;47.740;-3.390;2023-05-10T00:44:24;23.88;;;3.50;;
23260;SDS011;11799;47.740;-3.390;2023-05-10T00:46:50;14.85;;;3.10;;
23260;SDS011;11799;47.740;-3.390;2023-05-10T00:49:16;21.38;;;3.15;;
23260;SDS011;11799;47.740;-3.390;2023-05-10T00:51:42;21.92;;;3.00;;
23260;SDS011;11799;47.740;-3.390;2023-05-10T00:54:13;13.82;;;2.78;;
23260;SDS011;11799;47.740;-3.390;2023-05-10T00:56:40;16.15;;;2.90;;
23260;SDS011;11799;47.740;-3.390;2023-05-10T00:59:06;18.40;;;2.75;;
23260;SDS011;11799;47.740;-3.390;2023-05-10T01:01:33;16.00;;;3.00;;
23260;SDS011;11799;47.740;-3.390;2023-05-10T01:04:00;28.50;;;3.10;;
23260;SDS011;11799;47.740;-3.390;2023-05-10T01:06:27;21.90;;;3.08;;
23260;SDS011;11799;47.740;-3.390;2023-05-10T01:08:52;16.38;;;3.05;;
23260;SDS011;11799;47.740;-3.390;2023-05-10T01:11:18;19.00;;;3.42;;
23260;SDS011;11799;47.740;-3.390;2023-05-10T01:13:44;17.52;;;3.10;;
23260;SDS011;11799;47.740;-3.390;2023-05-10T01:16:16;17.30;;;3.58;;
23260;SDS011;11799;47.740;-3.390;2023-05-10T01:18:42;17.35;;;3.70;;
23260;SDS011;11799;47.740;-3.390;2023-05-10T01:24:08;17.52;;;3.13;;
23260;SDS011;11799;47.740;-3.390;2023-05-10T01:38:18;16.23;;;2.92;;
23260;SDS011;11799;47.740;-3.390;2023-05-10T01:43:44;16.00;;;2.97;;
23260;SDS011;11799;47.740;-3.390;2023-05-10T01:46:16;13.02;;;2.95;;
23260;SDS011;11799;47.740;-3.390;2023-05-10T01:48:51;23.30;;;3.83;;
23260;SDS011;11799;47.740;-3.390;2023-05-10T01:51:25;16.73;;;3.35;;
23260;SDS011;11799;47.740;-3.390;2023-05-10T01:53:58;14.50;;;3.22;;
23260;SDS011;11799;47.740;-3.390;2023-05-10T01:56:28;22.70;;;3.55;;
23260;SDS011;11799;47.740;-3.390;2023-05-10T01:58:56;27.35;;;3.85;;
23260;SDS011;11799;47.740;-3.390;2023-05-10T02:01:25;19.58;;;4.03;;
23260;SDS011;11799;47.740;-3.390;2023-05-10T02:03:52;14.77;;;2.92;;
23260;SDS011;11799;47.740;-3.390;2023-05-10T02:06:19;18.48;;;3.67;;
23260;SDS011;11799;47.740;-3.390;2023-05-10T02:08:46;22.67;;;4.30;;
23260;SDS011;11799;47.740;-3.390;2023-05-10T02:11:14;15.27;;;3.00;;
23260;SDS011;11799;47.740;-3.390;2023-05-10T02:13:41;20.80;;;3.30;;
23260;SDS011;11799;47.740;-3.390;2023-05-10T02:16:08;19.25;;;2.65;;
23260;SDS011;11799;47.740;-3.390;2023-05-10T02:18:35;17.88;;;3.00;;
23260;SDS011;11799;47.740;-3.390;2023-05-10T02:21:02;21.13;;;3.38;;
23260;SDS011;11799;47.740;-3.390;2023-05-10T02:23:28;24.42;;;3.45;;
23260;SDS011;11799;47.740;-3.390;2023-05-10T02:25:56;23.52;;;3.42;;
23260;SDS011;11799;47.740;-3.390;2023-05-10T02:28:23;19.02;;;3.33;;
23260;SDS011;11799;47.740;-3.390;2023-05-10T02:30:50;22.00;;;4.25;;
23260;SDS011;11799;47.740;-3.390;2023-05-10T02:33:17;19.48;;;3.38;;
23260;SDS011;11799;47.740;-3.390;2023-05-10T02:35:45;18.55;;;2.67;;
23260;SDS011;11799;47.740;-3.390;2023-05-10T02:38:12;17.85;;;3.55;;
23260;SDS011;11799;47.740;-3.390;2023-05-10T02:40:39;21.05;;;3.90;;
23260;SDS011;11799;47.740;-3.390;2023-05-10T02:43:09;22.27;;;3.03;;
23260;SDS011;11799;47.740;-3.390;2023-05-10T02:45:38;18.70;;;3.20;;
23260;SDS011;11799;47.740;-3.390;2023-05-10T02:48:04;19.05;;;3.47;;
23260;SDS011;11799;47.740;-3.390;2023-05-10T02:50:30;21.52;;;4.18;;
23260;SDS011;11799;47.740;-3.390;2023-05-10T02:53:01;19.65;;;3.35;;
23260;SDS011;11799;47.740;-3.390;2023-05-10T02:55:35;28.77;;;3.67;;
23260;SDS011;11799;47.740;-3.390;2023-05-10T02:58:03;20.60;;;3.30;;
23260;SDS011;11799;47.740;-3.390;2023-05-10T03:00:29;23.85;;;3.58;;
23260;SDS011;11799;47.740;-3.390;2023-05-10T03:02:54;19.10;;;3.30;;
23260;SDS011;11799;47.740;-3.390;2023-05-10T03:05:21;22.85;;;3.20;;
23260;SDS011;11799;47.740;-3.390;2023-05-10T03:07:47;20.42;;;3.60;;
23260;SDS011;11799;47.740;-3.390;2023-05-10T03:10:13;19.70;;;3.92;;
23260;SDS011;11799;47.740;-3.390;2023-05-10T03:18:15;17.10;;;2.92;;
23260;SDS011;11799;47.740;-3.390;2023-05-10T03:20:42;22.70;;;3.65;;
23260;SDS011;11799;47.740;-3.390;2023-05-10T03:25:43;16.92;;;3.53;;
23260;SDS011;11799;47.740;-3.390;2023-05-10T03:28:11;20.67;;;3.03;;
23260;SDS011;11799;47.740;-3.390;2023-05-10T03:30:37;12.52;;;2.50;;
23260;SDS011;11799;47.740;-3.390;2023-05-10T03:33:05;17.67;;;2.78;;
23260;SDS011;11799;47.740;-3.390;2023-05-10T03:35:32;17.85;;;2.80;;
23260;SDS011;11799;47.740;-3.390;2023-05-10T03:37:58;17.15;;;2.80;;
23260;SDS011;11799;47.740;-3.390;2023-05-10T03:40:24;16.77;;;2.97;;
23260;SDS011;11799;47.740;-3.390;2023-05-10T03:42:51;7.80;;;2.20;;
23260;SDS011;11799;47.740;-3.390;2023-05-10T03:45:17;10.98;;;2.65;;
23260;SDS011;11799;47.740;-3.390;2023-05-10T03:47:42;15.35;;;2.90;;
23260;SDS011;11799;47.740;-3.390;2023-05-10T03:50:08;17.67;;;2.72;;
23260;SDS011;11799;47.740;-3.390;2023-05-10T03:52:35;17.73;;;3.05;;
23260;SDS011;11799;47.740;-3.390;2023-05-10T03:55:00;14.20;;;2.85;;
23260;SDS011;11799;47.740;-3.390;2023-05-10T03:57:28;20.27;;;2.90;;
23260;SDS011;11799;47.740;-3.390;2023-05-10T03:59:54;28.02;;;10.65;;
23260;SDS011;11799;47.740;-3.390;2023-05-10T04:02:20;23.50;;;4.45;;
23260;SDS011;11799;47.740;-3.390;2023-05-10T04:04:45;18.13;;;4.65;;
23260;SDS011;11799;47.740;-3.390;2023-05-10T04:07:11;15.60;;;4.70;;
23260;SDS011;11799;47.740;-3.390;2023-05-10T04:09:36;15.88;;;3.15;;
23260;SDS011;11799;47.740;-3.390;2023-05-10T04:12:02;16.85;;;2.88;;
23260;SDS011;11799;47.740;-3.390;2023-05-10T04:14:28;16.33;;;2.92;;
23260;SDS011;11799;47.740;-3.390;2023-05-10T04:16:53;22.08;;;3.15;;
23260;SDS011;11799;47.740;-3.390;2023-05-10T04:19:19;20.38;;;2.92;;
23260;SDS011;11799;47.740;-3.390;2023-05-10T04:21:44;19.63;;;3.17;;
23260;SDS011;11799;47.740;-3.390;2023-05-10T04:24:10;17.30;;;3.00;;
23260;SDS011;11799;47.740;-3.390;2023-05-10T04:26:35;15.63;;;3.67;;
23260;SDS011;11799;47.740;-3.390;2023-05-10T04:29:01;13.07;;;2.60;;
23260;SDS011;11799;47.740;-3.390;2023-05-10T04:31:27;11.75;;;2.70;;
23260;SDS011;11799;47.740;-3.390;2023-05-10T04:33:53;12.60;;;2.88;;
23260;SDS011;11799;47.740;-3.390;2023-05-10T04:36:18;16.73;;;3.20;;
23260;SDS011;11799;47.740;-3.390;2023-05-10T04:38:44;16.23;;;2.90;;
23260;SDS011;11799;47.740;-3.390;2023-05-10T04:41:09;17.45;;;2.80;;
23260;SDS011;11799;47.740;-3.390;2023-05-10T04:43:36;15.75;;;2.80;;
23260;SDS011;11799;47.740;-3.390;2023-05-10T04:46:03;19.27;;;3.13;;
23260;SDS011;11799;47.740;-3.390;2023-05-10T04:48:29;15.85;;;2.50;;
23260;SDS011;11799;47.740;-3.390;2023-05-10T04:50:54;24.90;;;4.45;;
23260;SDS011;11799;47.740;-3.390;2023-05-10T04:53:20;18.67;;;3.25;;
23260;SDS011;11799;47.740;-3.390;2023-05-10T04:55:46;15.45;;;2.78;;
23260;SDS011;11799;47.740;-3.390;2023-05-10T04:58:12;16.23;;;2.95;;
23260;SDS011;11799;47.740;-3.390;2023-05-10T05:00:38;17.70;;;3.20;;
23260;SDS011;11799;47.740;-3.390;2023-05-10T05:03:03;17.13;;;3.42;;
23260;SDS011;11799;47.740;-3.390;2023-05-10T05:05:29;19.13;;;3.30;;
23260;SDS011;11799;47.740;-3.390;2023-05-10T05:07:54;14.35;;;3.20;;
23260;SDS011;11799;47.740;-3.390;2023-05-10T05:10:20;17.50;;;3.03;;
23260;SDS011;11799;47.740;-3.390;2023-05-10T05:12:45;17.33;;;3.08;;
23260;SDS011;11799;47.740;-3.390;2023-05-10T05:15:11;12.43;;;2.63;;
23260;SDS011;11799;47.740;-3.390;2023-05-10T05:17:36;21.48;;;3.40;;
23260;SDS011;11799;47.740;-3.390;2023-05-10T05:20:02;17.35;;;3.35;;
23260;SDS011;11799;47.740;-3.390;2023-05-10T05:22:28;24.48;;;3.10;;
23260;SDS011;11799;47.740;-3.390;2023-05-10T05:24:54;17.45;;;3.05;;
23260;SDS011;11799;47.740;-3.390;2023-05-10T05:27:20;18.10;;;3.55;;
23260;SDS011;11799;47.740;-3.390;2023-05-10T05:29:49;20.55;;;3.35;;
23260;SDS011;11799;47.740;-3.390;2023-05-10T05:32:16;11.10;;;3.13;;
23260;SDS011;11799;47.740;-3.390;2023-05-10T05:34:43;19.83;;;3.33;;
23260;SDS011;11799;47.740;-3.390;2023-05-10T05:37:13;18.33;;;3.95;;
23260;SDS011;11799;47.740;-3.390;2023-05-10T05:39:39;24.48;;;4.80;;
23260;SDS011;11799;47.740;-3.390;2023-05-10T05:42:05;20.48;;;3.78;;
23260;SDS011;11799;47.740;-3.390;2023-05-10T05:44:30;18.83;;;3.55;;
23260;SDS011;11799;47.740;-3.390;2023-05-10T05:46:56;26.00;;;4.07;;
23260;SDS011;11799;47.740;-3.390;2023-05-10T05:49:21;19.90;;;3.30;;
23260;SDS011;11799;47.740;-3.390;2023-05-10T05:51:47;20.65;;;3.45;;
23260;SDS011;11799;47.740;-3.390;2023-05-10T05:54:14;21.95;;;3.83;;
23260;SDS011;11799;47.740;-3.390;2023-05-10T05:56:40;23.58;;;4.05;;
23260;SDS011;11799;47.740;-3.390;2023-05-10T05:59:05;23.90;;;4.60;;
23260;SDS011;11799;47.740;-3.390;2023-05-10T06:01:31;22.98;;;3.15;;
23260;SDS011;11799;47.740;-3.390;2023-05-10T06:03:56;15.13;;;3.97;;
23260;SDS011;11799;47.740;-3.390;2023-05-10T06:06:22;17.98;;;3.90;;
23260;SDS011;11799;47.740;-3.390;2023-05-10T06:08:47;15.48;;;3.35;;
23260;SDS011;11799;47.740;-3.390;2023-05-10T06:11:13;17.63;;;3.97;;
23260;SDS011;11799;47.740;-3.390;2023-05-10T06:13:38;15.63;;;3.35;;
23260;SDS011;11799;47.740;-3.390;2023-05-10T06:16:04;17.95;;;3.40;;
23260;SDS011;11799;47.740;-3.390;2023-05-10T06:18:30;16.27;;;3.50;;
23260;SDS011;11799;47.740;-3.390;2023-05-10T06:20:56;17.55;;;3.60;;
23260;SDS011;11799;47.740;-3.390;2023-05-10T06:23:22;24.45;;;3.60;;
23260;SDS011;11799;47.740;-3.390;2023-05-10T06:25:48;17.13;;;3.50;;
23260;SDS011;11799;47.740;-3.390;2023-05-10T06:28:13;15.30;;;3.70;;
23260;SDS011;11799;47.740;-3.390;2023-05-10T06:30:39;26.10;;;4.03;;
23260;SDS011;11799;47.740;-3.390;2023-05-10T06:33:04;21.33;;;3.67;;
23260;SDS011;11799;47.740;-3.390;2023-05-10T06:35:30;14.80;;;2.95;;
23260;SDS011;11799;47.740;-3.390;2023-05-10T06:37:58;13.38;;;2.55;;
23260;SDS011;11799;47.740;-3.390;2023-05-10T06:40:24;16.83;;;2.67;;
23260;SDS011;11799;47.740;-3.390;2023-05-10T06:42:49;15.10;;;2.75;;
23260;SDS011;11799;47.740;-3.390;2023-05-10T06:45:16;20.58;;;3.40;;
23260;SDS011;11799;47.740;-3.390;2023-05-10T06:47:42;14.82;;;2.80;;
23260;SDS011;11799;47.740;-3.390;2023-05-10T06:50:08;20.23;;;3.08;;
23260;SDS011;11799;47.740;-3.390;2023-05-10T06:52:34;20.58;;;3.30;;
23260;SDS011;11799;47.740;-3.390;2023-05-10T06:55:00;16.55;;;2.80;;
23260;SDS011;11799;47.740;-3.390;2023-05-10T06:57:26;17.70;;;2.80;;
23260;SDS011;11799;47.740;-3.390;2023-05-10T06:59:52;14.90;;;2.95;;
23260;SDS011;11799;47.740;-3.390;2023-05-10T07:02:17;13.25;;;2.55;;
23260;SDS011;11799;47.740;-3.390;2023-05-10T07:04:43;12.95;;;2.50;;
23260;SDS011;11799;47.740;-3.390;2023-05-10T07:07:09;14.55;;;2.30;;
23260;SDS011;11799;47.740;-3.390;2023-05-10T07:09:34;13.80;;;2.40;;
23260;SDS011;11799;47.740;-3.390;2023-05-10T07:12:00;13.93;;;2.63;;
23260;SDS011;11799;47.740;-3.390;2023-05-10T07:14:27;14.45;;;2.75;;
23260;SDS011;11799;47.740;-3.390;2023-05-10T07:16:53;12.00;;;2.75;;
23260;SDS011;11799;47.740;-3.390;2023-05-10T07:19:18;16.38;;;2.97;;
23260;SDS011;11799;47.740;-3.390;2023-05-10T07:21:44;10.27;;;2.40;;
23260;SDS011;11799;47.740;-3.390;2023-05-10T07:24:10;11.65;;;2.67;;
23260;SDS011;11799;47.740;-3.390;2023-05-10T07:26:36;9.80;;;2.72;;
23260;SDS011;11799;47.740;-3.390;2023-05-10T07:29:02;10.25;;;3.00;;
23260;SDS011;11799;47.740;-3.390;2023-05-10T07:31:28;11.90;;;3.00;;
23260;SDS011;11799;47.740;-3.390;2023-05-10T07:33:53;15.55;;;2.97;;
23260;SDS011;11799;47.740;-3.390;2023-05-10T07:36:19;14.70;;;2.83;;
23260;SDS011;11799;47.740;-3.390;2023-05-10T07:38:44;13.55;;;2.30;;
23260;SDS011;11799;47.740;-3.390;2023-05-10T07:41:11;15.57;;;3.00;;
23260;SDS011;11799;47.740;-3.390;2023-05-10T07:43:36;17.85;;;3.58;;
23260;SDS011;11799;47.740;-3.390;2023-05-10T07:46:02;14.43;;;4.53;;
23260;SDS011;11799;47.740;-3.390;2023-05-10T07:48:28;15.70;;;2.42;;
23260;SDS011;11799;47.740;-3.390;2023-05-10T07:50:53;12.20;;;2.65;;
23260;SDS011;11799;47.740;-3.390;2023-05-10T07:53:19;12.10;;;2.53;;
23260;SDS011;11799;47.740;-3.390;2023-05-10T07:55:49;14.98;;;2.38;;
23260;SDS011;11799;47.740;-3.390;2023-05-10T07:58:15;6.22;;;1.88;;
23260;SDS011;11799;47.740;-3.390;2023-05-10T08:00:41;11.57;;;2.63;;
23260;SDS011;11799;47.740;-3.390;2023-05-10T08:03:06;7.20;;;2.08;;
23260;SDS011;11799;47.740;-3.390;2023-05-10T08:05:32;5.43;;;1.65;;
23260;SDS011;11799;47.740;-3.390;2023-05-10T08:07:58;5.28;;;1.65;;
23260;SDS011;11799;47.740;-3.390;2023-05-10T08:10:24;7.38;;;1.63;;
23260;SDS011;11799;47.740;-3.390;2023-05-10T08:12:50;6.78;;;1.25;;
23260;SDS011;11799;47.740;-3.390;2023-05-10T08:15:16;4.90;;;1.33;;
23260;SDS011;11799;47.740;-3.390;2023-05-10T08:17:42;2.67;;;1.02;;
23260;SDS011;11799;47.740;-3.390;2023-05-10T08:20:08;4.78;;;1.17;;
23260;SDS011;11799;47.740;-3.390;2023-05-10T08:22:34;5.65;;;1.05;;
23260;SDS011;11799;47.740;-3.390;2023-05-10T08:25:00;3.33;;;1.10;;
23260;SDS011;11799;47.740;-3.390;2023-05-10T08:27:25;2.67;;;1.15;;
23260;SDS011;11799;47.740;-3.390;2023-05-10T08:29:51;2.60;;;1.35;;
23260;SDS011;11799;47.740;-3.390;2023-05-10T08:32:17;6.55;;;1.38;;
23260;SDS011;11799;47.740;-3.390;2023-05-10T08:34:42;6.32;;;1.52;;
23260;SDS011;11799;47.740;-3.390;2023-05-10T08:37:08;8.80;;;1.50;;
23260;SDS011;11799;47.740;-3.390;2023-05-10T08:39:34;7.43;;;1.90;;
23260;SDS011;11799;47.740;-3.390;2023-05-10T08:42:01;5.03;;;1.55;;
23260;SDS011;11799;47.740;-3.390;2023-05-10T08:44:30;6.38;;;1.33;;
23260;SDS011;11799;47.740;-3.390;2023-05-10T08:46:57;6.90;;;1.48;;
23260;SDS011;11799;47.740;-3.390;2023-05-10T08:49:24;6.05;;;1.52;;
23260;SDS011;11799;47.740;-3.390;2023-05-10T08:51:54;6.93;;;1.50;;
23260;SDS011;11799;47.740;-3.390;2023-05-10T08:54:21;6.07;;;1.52;;
23260;SDS011;11799;47.740;-3.390;2023-05-10T08:56:48;3.50;;;1.23;;
23260;SDS011;11799;47.740;-3.390;2023-05-10T08:59:13;6.53;;;1.50;;
23260;SDS011;11799;47.740;-3.390;2023-05-10T09:01:40;6.85;;;1.63;;
23260;SDS011;11799;47.740;-3.390;2023-05-10T09:04:07;6.43;;;1.50;;
23260;SDS011;11799;47.740;-3.390;2023-05-10T09:06:33;6.10;;;1.42;;
23260;SDS011;11799;47.740;-3.390;2023-05-10T09:08:59;3.22;;;1.45;;
23260;SDS011;11799;47.740;-3.390;2023-05-10T09:11:25;6.45;;;1.60;;
23260;SDS011;11799;47.740;-3.390;2023-05-10T09:13:54;8.13;;;2.05;;
23260;SDS011;11799;47.740;-3.390;2023-05-10T09:16:20;7.55;;;1.70;;
23260;SDS011;11799;47.740;-3.390;2023-05-10T09:18:46;4.25;;;1.52;;
23260;SDS011;11799;47.740;-3.390;2023-05-10T09:21:12;5.82;;;1.67;;
23260;SDS011;11799;47.740;-3.390;2023-05-10T09:23:42;10.98;;;2.88;;
23260;SDS011;11799;47.740;-3.390;2023-05-10T09:26:08;7.55;;;1.92;;
23260;SDS011;11799;47.740;-3.390;2023-05-10T09:28:34;7.18;;;2.08;;
23260;SDS011;11799;47.740;-3.390;2023-05-10T09:31:18;7.20;;;2.03;;
23260;SDS011;11799;47.740;-3.390;2023-05-10T09:33:45;9.50;;;1.98;;
23260;SDS011;11799;47.740;-3.390;2023-05-10T09:36:12;11.40;;;2.53;;
23260;SDS011;11799;47.740;-3.390;2023-05-10T09:38:48;8.43;;;1.65;;
23260;SDS011;11799;47.740;-3.390;2023-05-10T09:41:16;8.35;;;1.80;;
23260;SDS011;11799;47.740;-3.390;2023-05-10T09:43:46;6.32;;;1.40;;
23260;SDS011;11799;47.740;-3.390;2023-05-10T09:46:12;7.20;;;1.88;;
23260;SDS011;11799;47.740;-3.390;2023-05-10T09:48:42;6.95;;;1.40;;
23260;SDS011;11799;47.740;-3.390;2023-05-10T09:51:21;5.95;;;1.80;;
23260;SDS011;11799;47.740;-3.390;2023-05-10T09:53:48;9.70;;;1.80;;
23260;SDS011;11799;47.740;-3.390;2023-05-10T09:56:34;6.85;;;1.20;;
23260;SDS011;11799;47.740;-3.390;2023-05-10T09:59:05;10.25;;;1.73;;
23260;SDS011;11799;47.740;-3.390;2023-05-10T10:01:32;7.45;;;1.88;;
23260;SDS011;11799;47.740;-3.390;2023-05-10T10:03:59;8.30;;;2.67;;
23260;SDS011;11799;47.740;-3.390;2023-05-10T10:06:28;8.70;;;2.00;;
23260;SDS011;11799;47.740;-3.390;2023-05-10T10:08:54;9.20;;;2.30;;
23260;SDS011;11799;47.740;-3.390;2023-05-10T10:11:21;8.80;;;1.85;;
23260;SDS011;11799;47.740;-3.390;2023-05-10T10:13:48;6.88;;;1.63;;
23260;SDS011;11799;47.740;-3.390;2023-05-10T10:16:14;9.00;;;2.08;;
23260;SDS011;11799;47.740;-3.390;2023-05-10T10:18:40;8.57;;;1.63;;
23260;SDS011;11799;47.740;-3.390;2023-05-10T10:21:07;13.38;;;2.30;;
23260;SDS011;11799;47.740;-3.390;2023-05-10T10:23:35;6.70;;;1.98;;
23260;SDS011;11799;47.740;-3.390;2023-05-10T10:26:02;6.85;;;1.90;;
23260;SDS011;11799;47.740;-3.390;2023-05-10T10:28:40;7.90;;;2.30;;
23260;SDS011;11799;47.740;-3.390;2023-05-10T10:31:13;10.45;;;2.10;;
23260;SDS011;11799;47.740;-3.390;2023-05-10T10:34:03;15.02;;;2.78;;
23260;SDS011;11799;47.740;-3.390;2023-05-10T10:36:32;9.77;;;2.10;;
23260;SDS011;11799;47.740;-3.390;2023-05-10T10:39:08;15.00;;;2.53;;
23260;SDS011;11799;47.740;-3.390;2023-05-10T10:41:35;12.15;;;2.22;;
23260;SDS011;11799;47.740;-3.390;2023-05-10T10:52:22;21.23;;;3.33;;
23260;SDS011;11799;47.740;-3.390;2023-05-10T10:55:08;12.13;;;2.30;;
23260;SDS011;11799;47.740;-3.390;2023-05-10T11:02:47;14.88;;;2.78;;
23260;SDS011;11799;47.740;-3.390;2023-05-10T11:05:23;10.18;;;2.33;;
23260;SDS011;11799;47.740;-3.390;2023-05-10T11:10:49;14.90;;;2.65;;
23260;SDS011;11799;47.740;-3.390;2023-05-10T11:13:17;12.02;;;2.33;;
23260;SDS011;11799;47.740;-3.390;2023-05-10T11:15:53;15.73;;;2.38;;
23260;SDS011;11799;47.740;-3.390;2023-05-10T11:18:29;8.07;;;1.60;;
23260;SDS011;11799;47.740;-3.390;2023-05-10T11:20:59;11.90;;;2.10;;
23260;SDS011;11799;47.740;-3.390;2023-05-10T11:23:32;13.65;;;2.30;;
23260;SDS011;11799;47.740;-3.390;2023-05-10T11:26:12;16.13;;;2.22;;
23260;SDS011;11799;47.740;-3.390;2023-05-10T11:28:45;13.95;;;2.20;;
23260;SDS011;11799;47.740;-3.390;2023-05-10T11:31:16;12.82;;;2.35;;
23260;SDS011;11799;47.740;-3.390;2023-05-10T11:33:43;10.07;;;2.35;;
23260;SDS011;11799;47.740;-3.390;2023-05-10T11:36:29;13.63;;;2.83;;
23260;SDS011;11799;47.740;-3.390;2023-05-10T11:38:58;13.10;;;2.47;;
23260;SDS011;11799;47.740;-3.390;2023-05-10T11:41:24;12.45;;;2.60;;
23260;SDS011;11799;47.740;-3.390;2023-05-10T11:43:50;10.35;;;2.03;;
23260;SDS011;11799;47.740;-3.390;2023-05-10T11:46:21;12.13;;;2.58;;
23260;SDS011;11799;47.740;-3.390;2023-05-10T11:48:51;13.07;;;2.95;;
23260;SDS011;11799;47.740;-3.390;2023-05-10T11:51:29;9.77;;;2.40;;
23260;SDS011;11799;47.740;-3.390;2023-05-10T11:53:57;11.93;;;2.72;;
23260;SDS011;11799;47.740;-3.390;2023-05-10T11:56:23;12.32;;;2.40;;
23260;SDS011;11799;47.740;-3.390;2023-05-10T11:58:54;15.27;;;2.33;;
23260;SDS011;11799;47.740;-3.390;2023-05-10T12:01:23;14.25;;;2.30;;
23260;SDS011;11799;47.740;-3.390;2023-05-10T12:03:50;8.63;;;2.08;;
23260;SDS011;11799;47.740;-3.390;2023-05-10T12:06:20;12.15;;;2.25;;
23260;SDS011;11799;47.740;-3.390;2023-05-10T12:08:47;10.93;;;1.88;;
23260;SDS011;11799;47.740;-3.390;2023-05-10T12:11:15;8.57;;;1.80;;
23260;SDS011;11799;47.740;-3.390;2023-05-10T12:13:42;13.35;;;2.30;;
23260;SDS011;11799;47.740;-3.390;2023-05-10T12:16:12;8.90;;;2.72;;
23260;SDS011;11799;47.740;-3.390;2023-05-10T12:18:39;11.50;;;1.95;;
23260;SDS011;11799;47.740;-3.390;2023-05-10T12:21:05;10.13;;;2.00;;
23260;SDS011;11799;47.740;-3.390;2023-05-10T12:23:31;8.63;;;1.63;;
23260;SDS011;11799;47.740;-3.390;2023-05-10T12:26:01;9.77;;;1.92;;
23260;SDS011;11799;47.740;-3.390;2023-05-10T12:28:29;7.88;;;1.65;;
23260;SDS011;11799;47.740;-3.390;2023-05-10T12:30:56;12.75;;;1.90;;
23260;SDS011;11799;47.740;-3.390;2023-05-10T12:33:23;9.13;;;1.67;;
23260;SDS011;11799;47.740;-3.390;2023-05-10T12:35:49;7.93;;;1.58;;
23260;SDS011;11799;47.740;-3.390;2023-05-10T12:38:25;11.18;;;1.70;;
23260;SDS011;11799;47.740;-3.390;2023-05-10T12:40:52;7.82;;;1.55;;
23260;SDS011;11799;47.740;-3.390;2023-05-10T12:43:17;6.97;;;1.60;;
23260;SDS011;11799;47.740;-3.390;2023-05-10T12:45:43;7.38;;;1.77;;
23260;SDS011;11799;47.740;-3.390;2023-05-10T12:48:13;6.55;;;1.80;;
23260;SDS011;11799;47.740;-3.390;2023-05-10T12:50:38;7.63;;;1.77;;
23260;SDS011;11799;47.740;-3.390;2023-05-10T12:53:04;8.38;;;2.25;;
23260;SDS011;11799;47.740;-3.390;2023-05-10T12:55:30;7.68;;;1.80;;
23260;SDS011;11799;47.740;-3.390;2023-05-10T12:57:55;10.88;;;2.10;;
23260;SDS011;11799;47.740;-3.390;2023-05-10T13:00:21;11.50;;;1.95;;
23260;SDS011;11799;47.740;-3.390;2023-05-10T13:02:47;10.75;;;2.35;;
23260;SDS011;11799;47.740;-3.390;2023-05-10T13:05:12;8.95;;;2.00;;
23260;SDS011;11799;47.740;-3.390;2023-05-10T13:07:38;13.13;;;2.10;;
23260;SDS011;11799;47.740;-3.390;2023-05-10T13:10:05;9.98;;;1.92;;
23260;SDS011;11799;47.740;-3.390;2023-05-10T13:12:31;6.15;;;2.10;;
23260;SDS011;11799;47.740;-3.390;2023-05-10T13:14:57;5.65;;;1.77;;
23260;SDS011;11799;47.740;-3.390;2023-05-10T13:17:22;9.32;;;1.65;;
23260;SDS011;11799;47.740;-3.390;2023-05-10T13:19:48;9.38;;;2.20;;
23260;SDS011;11799;47.740;-3.390;2023-05-10T13:22:14;7.28;;;1.77;;
23260;SDS011;11799;47.740;-3.390;2023-05-10T13:24:39;6.70;;;1.50;;
23260;SDS011;11799;47.740;-3.390;2023-05-10T13:27:05;7.78;;;1.85;;
23260;SDS011;11799;47.740;-3.390;2023-05-10T13:29:30;9.07;;;1.65;;
23260;SDS011;11799;47.740;-3.390;2023-05-10T13:31:56;8.50;;;1.92;;
23260;SDS011;11799;47.740;-3.390;2023-05-10T13:34:22;6.10;;;1.60;;
23260;SDS011;11799;47.740;-3.390;2023-05-10T13:36:49;7.00;;;1.90;;
23260;SDS011;11799;47.740;-3.390;2023-05-10T13:39:14;10.05;;;1.90;;
23260;SDS011;11799;47.740;-3.390;2023-05-10T13:41:40;6.78;;;1.65;;
23260;SDS011;11799;47.740;-3.390;2023-05-10T13:44:06;8.13;;;1.60;;
23260;SDS011;11799;47.740;-3.390;2023-05-10T13:46:31;4.47;;;1.33;;
23260;SDS011;11799;47.740;-3.390;2023-05-10T13:48:57;4.10;;;1.10;;
23260;SDS011;11799;47.740;-3.390;2023-05-10T13:51:25;6.13;;;1.38;;
23260;SDS011;11799;47.740;-3.390;2023-05-10T13:53:51;3.40;;;1.30;;
23260;SDS011;11799;47.740;-3.390;2023-05-10T13:56:17;4.85;;;1.45;;
23260;SDS011;11799;47.740;-3.390;2023-05-10T13:58:42;6.30;;;1.70;;
23260;SDS011;11799;47.740;-3.390;2023-05-10T14:01:08;5.63;;;1.48;;
23260;SDS011;11799;47.740;-3.390;2023-05-10T14:03:33;9.00;;;1.80;;
23260;SDS011;11799;47.740;-3.390;2023-05-10T14:05:59;6.47;;;1.88;;
23260;SDS011;11799;47.740;-3.390;2023-05-10T14:08:25;6.70;;;1.42;;
23260;SDS011;11799;47.740;-3.390;2023-05-10T14:10:52;8.02;;;1.73;;
23260;SDS011;11799;47.740;-3.390;2023-05-10T14:13:17;8.52;;;1.63;;
23260;SDS011;11799;47.740;-3.390;2023-05-10T14:15:43;3.92;;;1.50;;
23260;SDS011;11799;47.740;-3.390;2023-05-10T14:18:09;9.40;;;1.88;;
23260;SDS011;11799;47.740;-3.390;2023-05-10T14:20:34;8.55;;;1.70;;
23260;SDS011;11799;47.740;-3.390;2023-05-10T14:23:00;6.05;;;1.65;;
23260;SDS011;11799;47.740;-3.390;2023-05-10T14:25:26;8.63;;;1.77;;
23260;SDS011;11799;47.740;-3.390;2023-05-10T14:27:51;4.53;;;1.50;;
23260;SDS011;11799;47.740;-3.390;2023-05-10T14:30:19;7.70;;;1.70;;
23260;SDS011;11799;47.740;-3.390;2023-05-10T14:32:45;8.93;;;2.15;;
23260;SDS011;11799;47.740;-3.390;2023-05-10T14:35:11;10.90;;;1.80;;
23260;SDS011;11799;47.740;-3.390;2023-05-10T14:37:38;10.43;;;1.88;;
23260;SDS011;11799;47.740;-3.390;2023-05-10T14:40:03;7.40;;;1.80;;
23260;SDS011;11799;47.740;-3.390;2023-05-10T14:42:30;6.63;;;1.88;;
23260;SDS011;11799;47.740;-3.390;2023-05-10T14:44:56;7.43;;;1.98;;
23260;SDS011;11799;47.740;-3.390;2023-05-10T14:47:22;6.55;;;1.90;;
23260;SDS011;11799;47.740;-3.390;2023-05-10T14:49:47;10.00;;;2.08;;
23260;SDS011;11799;47.740;-3.390;2023-05-10T14:52:13;8.38;;;1.50;;
23260;SDS011;11799;47.740;-3.390;2023-05-10T14:54:39;7.60;;;2.00;;
23260;SDS011;11799;47.740;-3.390;2023-05-10T14:57:06;9.50;;;1.90;;
23260;SDS011;11799;47.740;-3.390;2023-05-10T14:59:32;5.80;;;1.83;;
23260;SDS011;11799;47.740;-3.390;2023-05-10T15:01:59;10.48;;;1.73;;
23260;SDS011;11799;47.740;-3.390;2023-05-10T15:04:24;8.13;;;1.67;;
23260;SDS011;11799;47.740;-3.390;2023-05-10T15:06:50;7.78;;;1.52;;